createdAt,value
2022-11-20T18:15:04.325Z,95.38
2022-11-20T18:17:36.898Z,86.25
2022-11-20T18:20:32.050Z,81.53
2022-11-20T18:23:13.275Z,81.63
2022-11-20T18:25:47.808Z,93.13
2022-11-20T18:28:23.033Z,67.18
2022-11-20T18:30:59.747Z,70.25
2022-11-20T18:33:31.095Z,65.50
2022-11-20T18:36:03.878Z,73.03
2022-11-20T18:38:34.888Z,72.10
2022-11-20T18:41:29.862Z,82.95
2022-11-20T18:44:13.368Z,94.25
2022-11-20T18:46:50.337Z,122.00
2022-11-20T18:49:22.312Z,126.40
2022-11-20T18:51:55.206Z,130.27
2022-11-20T18:54:26.774Z,119.72
2022-11-20T18:56:58.886Z,111.22
2022-11-20T18:59:29.935Z,130.65
2022-11-20T19:02:06.148Z,110.78
2022-11-20T19:04:38.599Z,276.50
2022-11-20T19:07:12.266Z,332.35
2022-11-20T19:09:45.861Z,264.77
2022-11-20T19:12:17.723Z,275.75
2022-11-20T19:14:50.448Z,149.18
2022-11-20T19:17:24.805Z,123.50
2022-11-20T19:19:55.369Z,137.57
2022-11-20T19:22:26.550Z,130.77
2022-11-20T19:24:58.826Z,95.53
2022-11-20T19:27:32.427Z,148.30
2022-11-20T19:30:04.246Z,108.97
2022-11-20T19:32:38.027Z,104.43
2022-11-20T19:35:35.528Z,88.68
2022-11-20T19:38:07.989Z,77.78
2022-11-20T19:40:45.503Z,87.38
2022-11-20T19:43:27.128Z,70.05
2022-11-20T19:46:00.436Z,65.95
2022-11-20T19:48:37.741Z,63.58
2022-11-20T19:51:12.753Z,75.72
2022-11-20T19:53:44.233Z,65.45
2022-11-20T19:56:16.539Z,62.50
2022-11-20T19:58:47.473Z,58.22
2022-11-20T20:01:20.254Z,56.78
2022-11-20T20:03:54.539Z,56.42
2022-11-20T20:06:29.892Z,53.45
2022-11-20T20:09:03.234Z,55.42
2022-11-20T20:11:52.844Z,56.60
2022-11-20T20:14:33.639Z,55.65
2022-11-20T20:20:21.174Z,62.90
2022-11-20T20:22:57.759Z,56.72
2022-11-20T20:25:29.617Z,53.70
2022-11-20T20:28:00.726Z,56.22
2022-11-20T20:30:32.142Z,55.58
2022-11-20T20:33:03.851Z,48.97
2022-11-20T20:35:37.003Z,49.47
2022-11-20T20:38:08.631Z,51.33
2022-11-20T20:40:40.336Z,51.28
2022-11-20T20:43:11.148Z,50.83
2022-11-20T20:45:49.523Z,48.33
2022-11-20T20:48:32.021Z,50.40
2022-11-20T20:51:17.716Z,49.60
2022-11-20T20:53:53.171Z,50.60
2022-11-20T20:56:24.233Z,53.38
2022-11-20T20:59:12.654Z,50.38
2022-11-20T21:01:46.296Z,50.50
2022-11-20T21:04:18.246Z,49.35
2022-11-20T21:06:55.776Z,50.38
2022-11-20T21:09:28.890Z,51.47
2022-11-20T21:12:01.088Z,52.10
2022-11-20T21:14:35.581Z,49.80
2022-11-20T21:17:13.673Z,51.50
2022-11-20T21:19:47.918Z,54.95
2022-11-20T21:22:25.687Z,73.38
2022-11-20T21:25:01.177Z,51.72
2022-11-20T21:27:35.468Z,58.20
2022-11-20T21:30:06.063Z,54.80
2022-11-20T21:32:36.935Z,93.75
2022-11-20T21:35:09.181Z,108.95
2022-11-20T21:37:49.493Z,97.10
2022-11-20T21:40:21.357Z,125.50
2022-11-20T21:42:51.860Z,124.65
2022-11-20T21:45:23.071Z,173.88
2022-11-20T21:47:54.209Z,165.20
2022-11-20T21:50:32.763Z,177.50
2022-11-20T21:53:22.045Z,139.35
2022-11-20T21:55:58.740Z,139.55
2022-11-20T21:58:29.338Z,152.10
2022-11-20T22:01:00.654Z,149.90
2022-11-20T22:03:42.860Z,110.55
2022-11-20T22:06:16.450Z,182.70
2022-11-20T22:08:52.410Z,106.03
2022-11-20T22:11:25.050Z,83.55
2022-11-20T22:14:07.597Z,86.15
2022-11-20T22:16:38.732Z,85.65
2022-11-20T22:19:10.181Z,176.95
2022-11-20T22:21:43.250Z,117.75
2022-11-20T22:24:20.194Z,93.93
2022-11-20T22:26:51.153Z,73.45
2022-11-20T22:29:25.120Z,62.05
2022-11-20T22:31:57.407Z,51.45
2022-11-20T22:34:32.788Z,50.72
2022-11-20T22:37:05.485Z,51.85
2022-11-20T22:39:50.713Z,52.28
2022-11-20T22:42:26.764Z,50.13
2022-11-20T22:45:07.413Z,47.03
2022-11-20T22:47:40.263Z,48.40
2022-11-20T22:50:15.438Z,49.63
2022-11-20T22:52:53.561Z,49.40
2022-11-20T22:55:29.135Z,49.72
2022-11-20T22:58:08.164Z,50.53
2022-11-20T23:01:09.824Z,52.95
2022-11-20T23:03:44.336Z,52.97
2022-11-20T23:06:15.708Z,56.00
2022-11-20T23:08:50.198Z,54.63
2022-11-20T23:11:26.793Z,55.58
2022-11-20T23:14:21.521Z,50.38
2022-11-20T23:16:59.460Z,51.13
2022-11-20T23:19:30.196Z,45.78
2022-11-20T23:22:01.192Z,76.07
2022-11-20T23:24:31.765Z,132.43
2022-11-20T23:27:06.322Z,113.32
2022-11-20T23:29:38.213Z,183.90
2022-11-20T23:32:09.366Z,173.20
2022-11-20T23:34:39.770Z,72.10
2022-11-20T23:37:10.661Z,76.00
2022-11-20T23:39:43.217Z,59.85
2022-11-20T23:42:16.996Z,51.70
2022-11-20T23:44:47.522Z,68.18
2022-11-20T23:47:17.956Z,50.78
2022-11-20T23:49:50.162Z,89.78
2022-11-20T23:52:20.446Z,50.42
2022-11-20T23:54:51.855Z,49.50
2022-11-20T23:57:25.756Z,45.20
